Time;durP1;ratioP1;P1;durP2;ratioP2;P2;SDS_P1;SDS_P2;PMS_P1;PMS_P2;Temp;Humidity;BMP_temperature;BMP_pressure;BME280_temperature;BME280_humidity;BME280_pressure;Samples;Min_cycle;Max_cycle;Signal;HPM_P1;HPM_P2
2021/06/21 00:00:48;;;;;;;5.32;4.07;;;;;;;;;;5101091;28;20024;-79
2021/06/21 00:03:14;;;;;;;7.13;4.00;;;;;;;;;;5100686;28;20059;-79
2021/06/21 00:05:40;;;;;;;5.05;3.40;;;;;;;;;;5100657;28;20481;-79
2021/06/21 00:08:07;;;;;;;6.57;3.70;;;;;;;;;;5100684;28;20043;-78
2021/06/21 00:10:33;;;;;;;6.57;3.60;;;;;;;;;;5100580;28;20031;-79
2021/06/21 00:12:59;;;;;;;5.40;3.72;;;;;;;;;;5100741;28;20021;-79
2021/06/21 00:15:26;;;;;;;4.68;3.55;;;;;;;;;;5099401;28;20051;-78
2021/06/21 00:17:52;;;;;;;5.53;3.55;;;;;;;;;;5100462;28;20040;-79
2021/06/21 00:20:19;;;;;;;4.55;3.38;;;;;;;;;;5100424;28;20024;-78
2021/06/21 00:22:45;;;;;;;5.57;3.75;;;;;;;;;;5100386;28;20031;-79
2021/06/21 00:25:12;;;;;;;4.38;3.97;;;;;;;;;;5099081;28;20054;-79
2021/06/21 00:27:39;;;;;;;7.07;3.88;;;;;;;;;;5100337;28;20032;-79
2021/06/21 00:30:06;;;;;;;5.45;3.90;;;;;;;;;;5100358;28;20020;-79
2021/06/21 00:32:32;;;;;;;5.70;4.00;;;;;;;;;;5100220;28;20023;-79
2021/06/21 00:34:58;;;;;;;4.45;4.05;;;;;;;;;;5100052;28;20047;-79
2021/06/21 00:37:24;;;;;;;4.97;3.67;;;;;;;;;;5100164;28;20031;-78
2021/06/21 00:39:50;;;;;;;5.70;4.15;;;;;;;;;;5098934;28;20027;-79
2021/06/21 00:42:16;;;;;;;4.40;3.47;;;;;;;;;;5100011;28;20107;-79
2021/06/21 00:44:43;;;;;;;6.18;3.78;;;;;;;;;;5099817;28;20039;-79
2021/06/21 00:47:13;;;;;;;3.80;3.50;;;;;;;;;;5099797;28;20068;-79
2021/06/21 00:49:39;;;;;;;6.15;3.88;;;;;;;;;;5099035;28;20027;-79
2021/06/21 00:52:06;;;;;;;5.60;4.40;;;;;;;;;;5099777;28;20020;-79
2021/06/21 00:54:32;;;;;;;6.80;4.18;;;;;;;;;;5099703;28;20016;-79
2021/06/21 00:56:58;;;;;;;4.70;4.20;;;;;;;;;;5099590;28;20052;-80
2021/06/21 00:59:24;;;;;;;7.40;4.55;;;;;;;;;;5099664;28;20035;-79
2021/06/21 01:01:50;;;;;;;5.25;4.63;;;;;;;;;;5099688;28;20097;-79
2021/06/21 01:04:16;;;;;;;6.38;4.70;;;;;;;;;;5099626;28;20024;-79
2021/06/21 01:06:42;;;;;;;5.53;4.85;;;;;;;;;;5099468;28;20024;-79
2021/06/21 01:09:08;;;;;;;7.00;5.32;;;;;;;;;;5099089;28;20042;-79
2021/06/21 01:11:43;;;;;;;7.25;5.22;;;;;;;;;;5098347;28;20027;-79
2021/06/21 01:14:14;;;;;;;8.55;5.03;;;;;;;;;;5098190;28;20307;-79
2021/06/21 01:16:44;;;;;;;8.05;6.13;;;;;;;;;;5099505;28;20111;-79
2021/06/21 01:19:13;;;;;;;7.82;6.28;;;;;;;;;;5099248;28;20077;-79
2021/06/21 01:21:39;;;;;;;9.60;6.25;;;;;;;;;;5099033;28;20291;-79
2021/06/21 01:24:24;;;;;;;6.50;5.80;;;;;;;;;;5099148;28;20402;-79
2021/06/21 01:26:52;;;;;;;7.85;6.20;;;;;;;;;;5099029;28;20032;-79
2021/06/21 01:29:36;;;;;;;12.02;5.68;;;;;;;;;;5099135;28;20024;-79
2021/06/21 01:32:12;;;;;;;7.45;5.88;;;;;;;;;;5098909;28;20024;-79
2021/06/21 01:34:41;;;;;;;6.50;5.72;;;;;;;;;;5098790;28;20493;-79
2021/06/21 01:37:08;;;;;;;7.68;5.57;;;;;;;;;;5097895;28;20437;-79
2021/06/21 01:39:34;;;;;;;6.95;6.00;;;;;;;;;;5098582;28;20024;-79
2021/06/21 01:42:03;;;;;;;6.60;5.82;;;;;;;;;;5098915;28;20027;-79
2021/06/21 01:44:32;;;;;;;7.43;5.47;;;;;;;;;;5098648;28;20414;-79
2021/06/21 01:47:00;;;;;;;8.02;6.30;;;;;;;;;;5098587;28;20870;-79
2021/06/21 01:49:29;;;;;;;8.20;6.10;;;;;;;;;;5097899;28;20028;-79
2021/06/21 01:51:57;;;;;;;7.05;5.65;;;;;;;;;;5098781;28;20133;-79
2021/06/21 01:54:28;;;;;;;8.02;6.28;;;;;;;;;;5098460;28;20030;-79
2021/06/21 01:56:58;;;;;;;7.85;6.07;;;;;;;;;;5098399;28;20028;-79
2021/06/21 01:59:27;;;;;;;6.80;5.90;;;;;;;;;;5098547;28;20052;-79
2021/06/21 02:01:59;;;;;;;8.68;5.82;;;;;;;;;;5097645;28;20406;-79
2021/06/21 02:04:26;;;;;;;8.68;6.25;;;;;;;;;;5098500;28;20036;-79
2021/06/21 02:06:53;;;;;;;8.57;5.90;;;;;;;;;;5098353;28;20020;-79
2021/06/21 02:09:23;;;;;;;7.63;5.32;;;;;;;;;;5098310;28;20024;-78
2021/06/21 02:11:51;;;;;;;7.90;6.35;;;;;;;;;;5098170;28;20104;-79
2021/06/21 02:14:19;;;;;;;8.85;6.97;;;;;;;;;;5098098;28;20028;-79
2021/06/21 02:16:45;;;;;;;7.43;6.10;;;;;;;;;;5098420;28;20070;-79
2021/06/21 02:19:12;;;;;;;11.93;6.55;;;;;;;;;;5097383;28;20036;-79
2021/06/21 02:21:39;;;;;;;7.85;6.15;;;;;;;;;;5098030;28;20028;-79
2021/06/21 02:24:05;;;;;;;10.32;6.10;;;;;;;;;;5098078;28;20016;-79
2021/06/21 02:26:31;;;;;;;16.55;6.38;;;;;;;;;;5097869;28;20115;-79
2021/06/21 02:28:59;;;;;;;11.38;6.43;;;;;;;;;;5097924;28;20385;-79
2021/06/21 02:31:26;;;;;;;7.70;6.00;;;;;;;;;;5098258;28;20027;-79
2021/06/21 02:33:52;;;;;;;8.98;6.22;;;;;;;;;;5097771;28;20016;-79
2021/06/21 02:36:18;;;;;;;8.75;5.68;;;;;;;;;;5097830;28;20118;-79
2021/06/21 02:38:44;;;;;;;8.27;5.80;;;;;;;;;;5096736;28;20029;-79
2021/06/21 02:41:10;;;;;;;7.72;6.18;;;;;;;;;;5097715;28;20028;-78
2021/06/21 02:43:36;;;;;;;6.70;6.00;;;;;;;;;;5097678;28;20060;-79
2021/06/21 02:46:02;;;;;;;8.73;5.80;;;;;;;;;;5090909;28;20368;-78
2021/06/21 02:48:28;;;;;;;7.63;6.22;;;;;;;;;;5083912;28;20429;-78
2021/06/21 02:50:55;;;;;;;7.38;6.28;;;;;;;;;;5077323;28;20060;-79
2021/06/21 02:53:34;;;;;;;6.25;5.55;;;;;;;;;;5077538;28;20295;-78
2021/06/21 02:56:18;;;;;;;11.93;6.70;;;;;;;;;;5077080;28;20029;-79
2021/06/21 02:58:46;;;;;;;13.68;6.78;;;;;;;;;;5077353;28;20078;-79
2021/06/21 03:01:14;;;;;;;10.00;6.45;;;;;;;;;;5077398;28;20099;-78
2021/06/21 03:03:41;;;;;;;10.30;6.22;;;;;;;;;;5077184;28;20403;-79
2021/06/21 03:06:08;;;;;;;9.98;6.72;;;;;;;;;;5077274;28;20047;-79
2021/06/21 03:08:34;;;;;;;7.90;6.60;;;;;;;;;;5077064;28;20021;-79
2021/06/21 03:11:02;;;;;;;8.50;6.38;;;;;;;;;;5076892;28;20344;-79
2021/06/21 03:13:28;;;;;;;11.05;6.63;;;;;;;;;;5076922;28;20058;-79
2021/06/21 03:15:55;;;;;;;9.25;6.40;;;;;;;;;;5076857;28;20040;-79
2021/06/21 03:18:22;;;;;;;13.00;6.63;;;;;;;;;;5077158;28;20047;-79
2021/06/21 03:20:52;;;;;;;8.55;6.68;;;;;;;;;;5077102;28;20100;-79
2021/06/21 03:23:21;;;;;;;9.52;6.70;;;;;;;;;;5077004;28;20025;-79
2021/06/21 03:25:50;;;;;;;8.73;6.43;;;;;;;;;;5076790;28;20275;-79
2021/06/21 03:28:16;;;;;;;9.48;6.40;;;;;;;;;;5076968;28;20012;-79
2021/06/21 03:30:48;;;;;;;9.48;6.72;;;;;;;;;;5076865;28;20103;-79
2021/06/21 03:33:14;;;;;;;9.85;6.47;;;;;;;;;;5076842;28;20025;-79
2021/06/21 03:35:40;;;;;;;12.55;6.97;;;;;;;;;;5076999;28;20016;-79
2021/06/21 03:38:13;;;;;;;8.07;6.10;;;;;;;;;;5076712;28;20048;-79
2021/06/21 03:40:39;;;;;;;10.93;6.60;;;;;;;;;;5076813;28;20092;-78
2021/06/21 03:43:05;;;;;;;9.98;6.40;;;;;;;;;;5075729;28;20062;-79
2021/06/21 03:45:32;;;;;;;11.32;6.97;;;;;;;;;;5076641;28;20052;-79
2021/06/21 03:47:58;;;;;;;11.90;6.75;;;;;;;;;;5076942;28;20021;-79
2021/06/21 03:50:24;;;;;;;9.50;6.90;;;;;;;;;;5076672;28;20028;-78
2021/06/21 03:52:50;;;;;;;11.43;6.97;;;;;;;;;;5076767;28;20028;-78
2021/06/21 03:55:16;;;;;;;11.60;7.35;;;;;;;;;;5076599;28;20021;-78
2021/06/21 03:57:44;;;;;;;8.70;6.85;;;;;;;;;;5075393;28;20044;-79
2021/06/21 04:00:12;;;;;;;8.70;6.35;;;;;;;;;;5076690;28;20486;-79
2021/06/21 04:02:38;;;;;;;8.52;6.38;;;;;;;;;;5076635;28;20352;-79
2021/06/21 04:05:04;;;;;;;9.85;6.57;;;;;;;;;;5076587;28;20029;-79
2021/06/21 04:07:31;;;;;;;7.78;5.70;;;;;;;;;;5076229;28;20051;-78
2021/06/21 04:09:57;;;;;;;9.43;6.57;;;;;;;;;;5076658;28;20028;-79
2021/06/21 04:12:24;;;;;;;7.47;5.88;;;;;;;;;;5076354;28;20025;-79
2021/06/21 04:14:51;;;;;;;6.90;5.50;;;;;;;;;;5076389;28;20120;-79
2021/06/21 04:17:18;;;;;;;8.90;6.13;;;;;;;;;;5076599;28;20024;-79
2021/06/21 04:19:44;;;;;;;6.43;5.55;;;;;;;;;;5076633;28;20020;-79
2021/06/21 04:22:10;;;;;;;8.80;5.93;;;;;;;;;;5075325;28;20032;-80
2021/06/21 04:24:36;;;;;;;9.65;6.97;;;;;;;;;;5076541;28;20033;-79
2021/06/21 04:27:02;;;;;;;17.42;11.20;;;;;;;;;;5079835;28;20043;-79
2021/06/21 04:29:28;;;;;;;12.50;8.90;;;;;;;;;;5080160;28;20017;-79
2021/06/21 04:31:54;;;;;;;8.60;6.35;;;;;;;;;;5079057;28;20029;-79
2021/06/21 04:34:20;;;;;;;7.82;5.55;;;;;;;;;;5093903;28;20024;-78
2021/06/21 04:36:46;;;;;;;8.18;5.82;;;;;;;;;;5089349;28;20107;-78
2021/06/21 04:39:13;;;;;;;9.15;5.50;;;;;;;;;;5079773;28;20029;-79
2021/06/21 04:41:39;;;;;;;5.60;5.03;;;;;;;;;;5079712;28;20099;-79
2021/06/21 04:44:05;;;;;;;7.32;5.18;;;;;;;;;;5079614;28;20032;-78
2021/06/21 04:46:33;;;;;;;9.68;6.05;;;;;;;;;;5079490;28;20222;-80
2021/06/21 04:49:00;;;;;;;12.20;5.82;;;;;;;;;;5079502;28;20104;-79
2021/06/21 04:51:26;;;;;;;7.28;5.47;;;;;;;;;;5079597;28;20031;-79
2021/06/21 04:53:52;;;;;;;12.32;5.30;;;;;;;;;;5079558;28;20472;-78
2021/06/21 04:56:18;;;;;;;7.50;5.90;;;;;;;;;;5079363;28;20025;-79
2021/06/21 04:58:45;;;;;;;9.35;7.18;;;;;;;;;;5079704;28;20035;-79
2021/06/21 05:01:11;;;;;;;7.07;6.15;;;;;;;;;;5078466;28;20330;-79
2021/06/21 05:03:37;;;;;;;10.55;8.63;;;;;;;;;;5078313;28;20036;-79
2021/06/21 05:06:07;;;;;;;23.00;16.25;;;;;;;;;;5079212;28;20509;-79
2021/06/21 05:08:34;;;;;;;9.75;8.20;;;;;;;;;;5079193;28;20062;-79
2021/06/21 05:11:00;;;;;;;10.93;9.20;;;;;;;;;;5079415;28;20016;-79
2021/06/21 05:13:26;;;;;;;20.17;15.68;;;;;;;;;;5079415;28;20040;-79
2021/06/21 05:15:52;;;;;;;19.15;16.08;;;;;;;;;;5078982;28;20052;-79
2021/06/21 05:18:18;;;;;;;14.07;11.23;;;;;;;;;;5079303;28;20111;-78
2021/06/21 05:20:44;;;;;;;12.40;11.07;;;;;;;;;;5079147;28;20020;-79
2021/06/21 05:23:10;;;;;;;11.73;9.07;;;;;;;;;;5078916;28;20353;-79
2021/06/21 05:25:36;;;;;;;17.13;13.60;;;;;;;;;;5077692;28;20029;-79
2021/06/21 05:28:03;;;;;;;18.88;10.55;;;;;;;;;;5079222;28;20025;-79
2021/06/21 05:30:29;;;;;;;12.50;11.18;;;;;;;;;;5078858;28;20020;-79
2021/06/21 05:32:56;;;;;;;19.20;14.02;;;;;;;;;;5078643;28;20103;-79
2021/06/21 05:35:22;;;;;;;12.68;10.77;;;;;;;;;;5078831;28;20043;-79
2021/06/21 05:37:48;;;;;;;14.10;11.48;;;;;;;;;;5078462;28;20027;-79
2021/06/21 05:40:16;;;;;;;16.42;12.90;;;;;;;;;;5078812;28;20100;-79
2021/06/21 05:42:42;;;;;;;10.98;8.25;;;;;;;;;;5078752;28;20043;-79
2021/06/21 05:45:08;;;;;;;15.25;11.95;;;;;;;;;;5078530;28;20119;-79
2021/06/21 05:47:34;;;;;;;14.20;12.38;;;;;;;;;;5078265;28;20119;-79
2021/06/21 05:50:00;;;;;;;24.15;20.70;;;;;;;;;;5078565;28;20020;-79
2021/06/21 05:52:26;;;;;;;18.25;14.68;;;;;;;;;;5078509;28;20025;-79
2021/06/21 05:54:58;;;;;;;16.33;10.95;;;;;;;;;;5077543;28;20060;-79
2021/06/21 05:57:25;;;;;;;11.48;7.10;;;;;;;;;;5078266;28;20069;-79
2021/06/21 05:59:51;;;;;;;8.95;6.53;;;;;;;;;;5078391;28;20028;-78
2021/06/21 06:02:18;;;;;;;10.93;7.30;;;;;;;;;;5078242;28;20020;-79
2021/06/21 06:04:44;;;;;;;29.30;22.08;;;;;;;;;;5078108;28;20120;-79
2021/06/21 06:07:10;;;;;;;15.68;13.27;;;;;;;;;;5078055;28;20467;-79
2021/06/21 06:09:36;;;;;;;22.35;16.13;;;;;;;;;;5078061;28;20315;-79
2021/06/21 06:12:02;;;;;;;10.23;7.35;;;;;;;;;;5077847;28;20103;-79
2021/06/21 06:14:28;;;;;;;14.18;6.68;;;;;;;;;;5077685;28;20040;-79
2021/06/21 06:16:55;;;;;;;10.70;6.20;;;;;;;;;;5078064;28;20406;-79
2021/06/21 06:19:21;;;;;;;10.30;7.55;;;;;;;;;;5080322;28;20142;-79
2021/06/21 06:21:47;;;;;;;9.85;8.85;;;;;;;;;;5088021;28;20024;-79
2021/06/21 06:24:14;;;;;;;14.63;11.45;;;;;;;;;;5077991;28;20024;-79
2021/06/21 06:26:43;;;;;;;23.10;17.33;;;;;;;;;;5077754;28;20037;-79
2021/06/21 06:29:09;;;;;;;11.15;8.38;;;;;;;;;;5077640;28;20110;-79
2021/06/21 06:31:35;;;;;;;12.18;10.75;;;;;;;;;;5089324;28;20031;-79
2021/06/21 06:34:01;;;;;;;11.05;8.02;;;;;;;;;;5097918;28;20150;-79
2021/06/21 06:36:27;;;;;;;10.20;7.60;;;;;;;;;;5097103;28;20032;-79
2021/06/21 06:38:53;;;;;;;17.27;14.23;;;;;;;;;;5097775;28;20028;-79
2021/06/21 06:41:20;;;;;;;15.20;8.55;;;;;;;;;;5095515;28;20073;-79
2021/06/21 06:43:46;;;;;;;15.63;8.40;;;;;;;;;;5089765;28;20032;-79
2021/06/21 06:46:12;;;;;;;13.73;9.38;;;;;;;;;;5085125;28;20488;-78
2021/06/21 06:48:38;;;;;;;9.52;6.38;;;;;;;;;;5076758;28;20025;-78
2021/06/21 06:51:04;;;;;;;10.70;8.57;;;;;;;;;;5077294;28;20021;-79
2021/06/21 06:53:42;;;;;;;6.95;6.25;;;;;;;;;;5077251;28;20024;-78
2021/06/21 06:58:55;;;;;;;19.65;17.60;;;;;;;;;;5077471;28;20081;-79
2021/06/21 07:01:21;;;;;;;7.72;6.85;;;;;;;;;;5076500;28;20036;-79
2021/06/21 07:03:49;;;;;;;11.40;6.55;;;;;;;;;;5077067;28;20051;-79
2021/06/21 07:06:16;;;;;;;11.48;9.00;;;;;;;;;;5077096;28;20024;-78
2021/06/21 07:08:42;;;;;;;7.28;5.93;;;;;;;;;;5077361;28;20035;-78
2021/06/21 07:11:08;;;;;;;16.92;8.60;;;;;;;;;;5076004;28;20062;-77
2021/06/21 07:13:34;;;;;;;11.00;5.60;;;;;;;;;;5077092;28;20100;-78
2021/06/21 07:16:00;;;;;;;6.88;5.40;;;;;;;;;;5076835;28;20044;-78
2021/06/21 07:18:26;;;;;;;8.27;6.82;;;;;;;;;;5077028;28;20028;-77
2021/06/21 07:20:52;;;;;;;9.23;4.30;;;;;;;;;;5076982;28;20045;-78
2021/06/21 07:23:19;;;;;;;9.73;7.32;;;;;;;;;;5077211;28;20066;-77
2021/06/21 07:25:45;;;;;;;5.32;4.30;;;;;;;;;;5076832;28;20032;-78
2021/06/21 07:28:11;;;;;;;4.78;4.30;;;;;;;;;;5075851;28;20061;-78
2021/06/21 07:30:38;;;;;;;5.50;4.10;;;;;;;;;;5076986;28;20095;-78
2021/06/21 07:33:04;;;;;;;7.85;4.85;;;;;;;;;;5076891;28;20437;-77
2021/06/21 07:35:30;;;;;;;8.75;4.82;;;;;;;;;;5076886;28;20060;-78
2021/06/21 07:37:56;;;;;;;7.10;5.18;;;;;;;;;;5077079;28;20021;-78
2021/06/21 07:40:22;;;;;;;7.63;4.90;;;;;;;;;;5076799;28;20382;-77
2021/06/21 07:42:48;;;;;;;8.60;4.70;;;;;;;;;;5076508;28;20047;-78
2021/06/21 07:45:14;;;;;;;7.20;5.13;;;;;;;;;;5076685;28;20036;-78
2021/06/21 07:47:40;;;;;;;4.95;4.05;;;;;;;;;;5076698;28;20372;-77
2021/06/21 07:50:08;;;;;;;8.65;5.53;;;;;;;;;;5078792;28;20315;-77
2021/06/21 07:52:35;;;;;;;9.93;5.20;;;;;;;;;;5088652;28;20142;-76
2021/06/21 07:55:01;;;;;;;6.38;4.07;;;;;;;;;;5096816;28;20048;-77
2021/06/21 07:57:28;;;;;;;4.97;3.83;;;;;;;;;;5096888;28;20406;-77
2021/06/21 07:59:55;;;;;;;6.50;3.72;;;;;;;;;;5098972;28;20423;-78
2021/06/21 08:02:21;;;;;;;7.32;5.05;;;;;;;;;;5100491;28;20115;-78
2021/06/21 08:04:47;;;;;;;6.53;4.20;;;;;;;;;;5100683;28;20051;-78
2021/06/21 08:07:16;;;;;;;6.15;4.15;;;;;;;;;;5100767;28;20020;-78
2021/06/21 08:09:43;;;;;;;6.68;4.20;;;;;;;;;;5100772;28;20040;-78
2021/06/21 08:12:09;;;;;;;7.00;4.75;;;;;;;;;;5100576;28;20337;-78
2021/06/21 08:14:36;;;;;;;6.90;4.10;;;;;;;;;;5100320;28;20104;-78
2021/06/21 08:17:02;;;;;;;4.75;4.35;;;;;;;;;;5100346;28;20035;-78
2021/06/21 08:19:28;;;;;;;8.75;4.45;;;;;;;;;;5100504;28;20046;-78
2021/06/21 08:21:54;;;;;;;5.38;3.80;;;;;;;;;;5100696;28;20103;-78
2021/06/21 08:24:20;;;;;;;6.07;4.20;;;;;;;;;;5100694;28;20032;-78
2021/06/21 08:26:46;;;;;;;4.22;3.72;;;;;;;;;;5100246;28;20481;-78
2021/06/21 08:29:12;;;;;;;6.85;4.55;;;;;;;;;;5100287;28;20024;-77
2021/06/21 08:31:38;;;;;;;5.97;3.92;;;;;;;;;;5100239;28;20023;-78
2021/06/21 08:34:04;;;;;;;8.00;4.20;;;;;;;;;;5100170;28;20406;-78
2021/06/21 08:36:30;;;;;;;7.22;4.20;;;;;;;;;;5100177;28;20438;-78
2021/06/21 08:38:56;;;;;;;8.07;4.50;;;;;;;;;;5100346;28;20318;-78
2021/06/21 08:41:22;;;;;;;7.03;4.50;;;;;;;;;;5099058;28;20329;-77
2021/06/21 08:43:49;;;;;;;10.32;4.43;;;;;;;;;;5099255;28;20141;-78
2021/06/21 08:46:18;;;;;;;8.68;4.72;;;;;;;;;;5099914;28;20039;-77
2021/06/21 08:48:46;;;;;;;6.78;5.10;;;;;;;;;;5099816;28;20028;-78
2021/06/21 08:51:13;;;;;;;20.15;5.25;;;;;;;;;;5095878;28;20028;-78
2021/06/21 08:53:39;;;;;;;6.30;4.70;;;;;;;;;;5078620;28;20046;-78
2021/06/21 08:56:06;;;;;;;9.85;4.68;;;;;;;;;;5079321;28;20036;-76
2021/06/21 08:58:32;;;;;;;10.25;5.28;;;;;;;;;;5079358;28;20021;-80
2021/06/21 09:00:58;;;;;;;4.40;3.70;;;;;;;;;;5087235;28;20024;-76
2021/06/21 09:03:25;;;;;;;11.57;5.00;;;;;;;;;;5080244;28;20043;-76
2021/06/21 09:05:51;;;;;;;11.27;4.22;;;;;;;;;;5079441;28;20052;-76
2021/06/21 09:08:17;;;;;;;6.88;5.05;;;;;;;;;;5079291;28;20358;-81
2021/06/21 09:10:43;;;;;;;6.53;4.63;;;;;;;;;;5078578;28;20017;-77
2021/06/21 09:13:16;;;;;;;6.55;4.85;;;;;;;;;;5079563;28;20423;-77
2021/06/21 09:15:49;;;;;;;8.80;4.43;;;;;;;;;;5078872;28;20056;-77
2021/06/21 09:18:27;;;;;;;8.45;4.97;;;;;;;;;;5079095;28;20021;-77
2021/06/21 09:21:17;;;;;;;5.18;4.50;;;;;;;;;;5079248;28;20017;-77
2021/06/21 09:23:43;;;;;;;6.88;4.13;;;;;;;;;;5060237;28;20143;-76
2021/06/21 09:26:19;;;;;;;8.02;4.63;;;;;;;;;;5077015;28;20037;-77
2021/06/21 09:28:45;;;;;;;6.20;4.80;;;;;;;;;;5076736;28;20076;-76
2021/06/21 09:31:11;;;;;;;10.25;5.32;;;;;;;;;;5059790;28;20415;-78
2021/06/21 09:33:37;;;;;;;13.52;5.90;;;;;;;;;;5086793;28;20419;-77
2021/06/21 09:36:04;;;;;;;16.20;6.53;;;;;;;;;;5096954;28;20070;-77
2021/06/21 09:38:30;;;;;;;10.93;5.20;;;;;;;;;;5096981;28;20073;-78
2021/06/21 09:41:00;;;;;;;5.82;4.93;;;;;;;;;;5094043;28;20042;-77
2021/06/21 09:43:36;;;;;;;9.50;4.45;;;;;;;;;;5076761;28;20033;-77
2021/06/21 09:46:07;;;;;;;8.10;5.35;;;;;;;;;;5076520;28;20111;-77
2021/06/21 09:48:41;;;;;;;8.40;4.43;;;;;;;;;;5076554;28;20413;-78
2021/06/21 09:51:26;;;;;;;9.38;4.20;;;;;;;;;;5076705;28;20131;-78
2021/06/21 09:53:56;;;;;;;5.45;4.50;;;;;;;;;;5076341;28;20036;-78
2021/06/21 09:56:40;;;;;;;7.80;5.25;;;;;;;;;;5076371;28;20066;-78
2021/06/21 09:59:16;;;;;;;6.97;5.25;;;;;;;;;;5076472;28;20031;-78
2021/06/21 10:01:43;;;;;;;6.93;5.75;;;;;;;;;;5078137;28;20478;-78
2021/06/21 10:04:22;;;;;;;9.18;4.93;;;;;;;;;;5078356;28;20402;-78
2021/06/21 10:06:48;;;;;;;6.82;5.05;;;;;;;;;;5078067;28;20032;-78
2021/06/21 10:09:14;;;;;;;7.00;3.92;;;;;;;;;;5078080;28;20028;-78
2021/06/21 10:11:43;;;;;;;9.73;4.78;;;;;;;;;;5077766;28;20418;-78
2021/06/21 10:14:19;;;;;;;9.02;3.75;;;;;;;;;;5077208;28;20050;-78
2021/06/21 10:16:46;;;;;;;6.88;4.10;;;;;;;;;;5077969;28;20037;-78
2021/06/21 10:19:13;;;;;;;6.20;4.20;;;;;;;;;;5077930;28;20048;-78
2021/06/21 10:21:40;;;;;;;5.50;4.30;;;;;;;;;;5077842;28;20066;-78
2021/06/21 10:24:07;;;;;;;6.68;4.55;;;;;;;;;;5077173;28;20062;-78
2021/06/21 10:26:33;;;;;;;5.75;3.95;;;;;;;;;;5077416;28;20020;-78
2021/06/21 10:28:59;;;;;;;8.20;4.70;;;;;;;;;;5077711;28;20029;-79
2021/06/21 10:31:26;;;;;;;6.45;4.32;;;;;;;;;;5077710;28;20020;-78
2021/06/21 10:33:56;;;;;;;7.45;4.10;;;;;;;;;;5077646;28;20028;-78
2021/06/21 10:36:23;;;;;;;6.65;4.40;;;;;;;;;;5077755;28;20029;-78
2021/06/21 10:39:12;;;;;;;5.45;4.22;;;;;;;;;;5077774;28;20046;-78
2021/06/21 10:41:38;;;;;;;5.88;4.40;;;;;;;;;;5076305;28;20111;-78
2021/06/21 10:44:04;;;;;;;5.40;4.35;;;;;;;;;;5077405;28;20021;-78
2021/06/21 10:46:32;;;;;;;10.48;4.88;;;;;;;;;;5077324;28;20029;-79
2021/06/21 10:48:58;;;;;;;8.63;4.63;;;;;;;;;;5076230;28;20035;-78
2021/06/21 10:51:31;;;;;;;8.57;5.28;;;;;;;;;;5077529;28;20020;-78
2021/06/21 10:53:57;;;;;;;7.97;5.20;;;;;;;;;;5077508;28;20055;-78
2021/06/21 10:56:42;;;;;;;10.55;4.53;;;;;;;;;;5077148;28;20100;-79
2021/06/21 10:59:16;;;;;;;6.10;5.50;;;;;;;;;;5077192;28;20104;-80
2021/06/21 11:01:47;;;;;;;29.95;8.15;;;;;;;;;;5076223;28;20028;-77
2021/06/21 11:04:31;;;;;;;12.15;4.70;;;;;;;;;;5077360;28;20063;-77
2021/06/21 11:07:10;;;;;;;12.52;5.30;;;;;;;;;;5077216;28;20029;-77
2021/06/21 11:09:40;;;;;;;9.40;4.78;;;;;;;;;;5077241;28;20037;-77
2021/06/21 11:12:27;;;;;;;10.10;5.60;;;;;;;;;;5077035;28;20031;-79
2021/06/21 11:15:14;;;;;;;12.40;5.80;;;;;;;;;;5076601;28;20320;-78
2021/06/21 11:17:44;;;;;;;7.28;4.30;;;;;;;;;;5076886;28;20028;-78
2021/06/21 11:20:30;;;;;;;12.05;5.13;;;;;;;;;;5076941;28;20066;-77
2021/06/21 11:23:00;;;;;;;6.03;5.43;;;;;;;;;;5094688;28;20040;-78
2021/06/21 11:25:28;;;;;;;7.57;4.88;;;;;;;;;;5095233;28;20032;-78
2021/06/21 11:27:55;;;;;;;6.25;5.15;;;;;;;;;;5094817;28;20059;-78
2021/06/21 11:30:42;;;;;;;8.93;4.75;;;;;;;;;;5095189;28;20523;-78
2021/06/21 11:33:13;;;;;;;6.68;4.60;;;;;;;;;;5095071;28;20042;-78
2021/06/21 11:35:58;;;;;;;5.63;4.65;;;;;;;;;;5098766;28;20028;-78
2021/06/21 11:38:27;;;;;;;7.72;5.22;;;;;;;;;;5099404;28;20024;-79
2021/06/21 11:41:25;;;;;;;7.63;5.10;;;;;;;;;;5099376;28;20039;-78
2021/06/21 11:43:53;;;;;;;9.10;5.00;;;;;;;;;;5038207;28;20389;-78
2021/06/21 11:46:38;;;;;;;9.63;5.80;;;;;;;;;;5034771;28;20041;-78
2021/06/21 11:49:08;;;;;;;8.60;5.40;;;;;;;;;;5035600;28;20033;-77
2021/06/21 11:51:35;;;;;;;9.27;5.25;;;;;;;;;;5037775;28;20145;-77
2021/06/21 11:54:02;;;;;;;8.48;5.50;;;;;;;;;;5038802;28;20053;-77
2021/06/21 11:56:28;;;;;;;8.32;5.82;;;;;;;;;;5037509;28;20316;-77
2021/06/21 11:58:55;;;;;;;8.35;5.80;;;;;;;;;;5037188;28;20029;-77
2021/06/21 12:01:24;;;;;;;9.35;5.65;;;;;;;;;;5045239;28;20029;-78
2021/06/21 12:03:54;;;;;;;9.75;5.20;;;;;;;;;;5045566;28;20056;-78
2021/06/21 12:06:20;;;;;;;7.82;5.38;;;;;;;;;;5047238;28;20029;-77
2021/06/21 12:08:46;;;;;;;6.47;5.10;;;;;;;;;;5031190;28;20025;-77
2021/06/21 12:11:15;;;;;;;7.20;6.05;;;;;;;;;;5045371;28;20051;-77
2021/06/21 12:13:42;;;;;;;8.60;5.93;;;;;;;;;;5047228;28;20040;-78
2021/06/21 12:16:17;;;;;;;10.60;6.10;;;;;;;;;;5029088;28;20046;-77
2021/06/21 12:18:49;;;;;;;9.18;5.85;;;;;;;;;;5057875;28;20040;-78
2021/06/21 12:21:27;;;;;;;6.90;5.05;;;;;;;;;;5091266;28;20024;-78
2021/06/21 12:23:53;;;;;;;8.90;5.30;;;;;;;;;;5085057;28;20035;-78
2021/06/21 12:26:19;;;;;;;10.00;5.13;;;;;;;;;;5081754;28;20044;-78
2021/06/21 12:28:45;;;;;;;6.65;5.68;;;;;;;;;;5080027;28;20023;-78
2021/06/21 12:31:16;;;;;;;9.13;6.53;;;;;;;;;;5079906;28;20031;-78
2021/06/21 12:33:43;;;;;;;9.55;5.90;;;;;;;;;;5080014;28;20445;-78
2021/06/21 12:36:14;;;;;;;11.60;5.63;;;;;;;;;;5079847;28;20043;-78
2021/06/21 12:38:52;;;;;;;8.68;5.65;;;;;;;;;;5079715;28;20029;-78
2021/06/21 12:41:21;;;;;;;8.82;6.38;;;;;;;;;;5079879;28;20037;-78
2021/06/21 12:43:54;;;;;;;10.27;5.97;;;;;;;;;;5079624;28;20119;-78
2021/06/21 12:46:21;;;;;;;12.02;5.75;;;;;;;;;;5078366;28;20292;-78
2021/06/21 12:48:48;;;;;;;8.70;6.10;;;;;;;;;;5079584;28;20020;-78
2021/06/21 12:51:14;;;;;;;10.82;5.88;;;;;;;;;;5079542;28;20021;-78
2021/06/21 12:53:50;;;;;;;7.75;5.85;;;;;;;;;;5079589;28;20035;-78
2021/06/21 12:56:21;;;;;;;7.00;5.55;;;;;;;;;;5079585;28;20056;-79
2021/06/21 12:58:47;;;;;;;8.32;6.10;;;;;;;;;;5079687;28;20025;-78
2021/06/21 13:01:24;;;;;;;16.00;6.70;;;;;;;;;;5078673;28;20056;-77
2021/06/21 13:03:50;;;;;;;11.90;6.00;;;;;;;;;;5079616;28;20318;-77
2021/06/21 13:06:37;;;;;;;12.65;6.43;;;;;;;;;;5079284;28;20143;-78
2021/06/21 13:09:07;;;;;;;13.27;6.05;;;;;;;;;;5079080;28;20025;-77
2021/06/21 13:11:47;;;;;;;7.50;6.00;;;;;;;;;;5079112;28;20020;-77
2021/06/21 13:14:13;;;;;;;12.13;6.00;;;;;;;;;;5079385;28;20032;-77
2021/06/21 13:16:39;;;;;;;8.02;6.70;;;;;;;;;;5079063;28;20032;-78
2021/06/21 13:19:13;;;;;;;12.73;6.63;;;;;;;;;;5079102;28;20020;-78
2021/06/21 13:21:39;;;;;;;11.52;6.70;;;;;;;;;;5079008;28;20036;-77
2021/06/21 13:24:06;;;;;;;9.45;6.47;;;;;;;;;;5078996;28;20043;-77
2021/06/21 13:26:37;;;;;;;8.98;6.47;;;;;;;;;;5079138;28;20090;-77
2021/06/21 13:29:19;;;;;;;10.60;6.75;;;;;;;;;;5078922;28;20108;-77
2021/06/21 13:31:45;;;;;;;8.98;6.53;;;;;;;;;;5079017;28;20048;-78
2021/06/21 13:34:11;;;;;;;10.75;7.20;;;;;;;;;;5079017;28;20317;-78
2021/06/21 13:36:56;;;;;;;7.88;6.38;;;;;;;;;;5079016;28;20020;-78
2021/06/21 13:39:22;;;;;;;10.73;7.28;;;;;;;;;;5078757;28;20024;-78
2021/06/21 13:41:59;;;;;;;10.02;6.75;;;;;;;;;;5078679;28;20052;-77
2021/06/21 13:44:25;;;;;;;8.85;6.22;;;;;;;;;;5078529;28;20028;-78
2021/06/21 13:46:51;;;;;;;9.02;6.85;;;;;;;;;;5078755;28;20032;-78
2021/06/21 13:49:17;;;;;;;11.90;7.10;;;;;;;;;;5078415;28;20019;-78
2021/06/21 13:51:56;;;;;;;15.48;7.18;;;;;;;;;;5078681;28;20290;-77
2021/06/21 13:54:27;;;;;;;7.90;6.40;;;;;;;;;;5077596;28;20441;-77
2021/06/21 13:57:02;;;;;;;10.07;6.95;;;;;;;;;;5078035;28;20059;-78
2021/06/21 13:59:41;;;;;;;10.45;7.00;;;;;;;;;;5078398;28;20063;-77
2021/06/21 14:02:08;;;;;;;9.70;7.30;;;;;;;;;;5078256;28;20452;-77
2021/06/21 14:04:34;;;;;;;10.20;6.30;;;;;;;;;;5078396;28;20025;-78
2021/06/21 14:07:00;;;;;;;11.55;7.40;;;;;;;;;;5078258;28;20029;-77
2021/06/21 14:09:26;;;;;;;12.18;7.68;;;;;;;;;;5077979;28;20024;-77
2021/06/21 14:11:52;;;;;;;10.93;7.25;;;;;;;;;;5078145;28;20058;-77
2021/06/21 14:14:18;;;;;;;13.02;6.57;;;;;;;;;;5077689;28;20052;-77
2021/06/21 14:16:44;;;;;;;10.40;7.65;;;;;;;;;;5077877;28;20036;-78
2021/06/21 14:19:13;;;;;;;11.98;7.47;;;;;;;;;;5077957;28;20036;-77
2021/06/21 14:21:41;;;;;;;12.40;7.70;;;;;;;;;;5078035;28;20028;-77
2021/06/21 14:24:07;;;;;;;10.80;7.60;;;;;;;;;;5077828;28;20414;-78
2021/06/21 14:26:34;;;;;;;10.77;7.65;;;;;;;;;;5077717;28;20032;-77
2021/06/21 14:29:00;;;;;;;12.80;7.40;;;;;;;;;;5077748;28;20021;-77
2021/06/21 14:31:26;;;;;;;10.82;7.78;;;;;;;;;;5077342;28;20092;-77
2021/06/21 14:33:53;;;;;;;11.90;7.25;;;;;;;;;;5077591;28;20415;-77
2021/06/21 14:36:19;;;;;;;11.30;6.85;;;;;;;;;;5077594;28;20350;-78
2021/06/21 14:38:50;;;;;;;11.20;7.00;;;;;;;;;;5077910;28;20028;-78
2021/06/21 14:41:16;;;;;;;9.93;6.90;;;;;;;;;;5077108;28;20367;-78
2021/06/21 14:43:42;;;;;;;12.32;7.25;;;;;;;;;;5077428;28;20020;-78
2021/06/21 14:46:08;;;;;;;11.38;7.07;;;;;;;;;;5076400;28;20048;-78
2021/06/21 14:48:36;;;;;;;12.55;7.15;;;;;;;;;;5077452;28;20020;-78